createdAt,value
2022-10-25T00:01:29.133Z,20.50
2022-10-25T00:03:57.761Z,18.23
2022-10-25T00:06:26.484Z,20.13
2022-10-25T00:08:54.887Z,20.35
2022-10-25T00:11:26.021Z,21.10
2022-10-25T00:13:56.938Z,22.20
2022-10-25T00:16:31.503Z,16.25
2022-10-25T00:19:00.098Z,16.10
2022-10-25T00:21:28.201Z,21.35
2022-10-25T00:23:56.146Z,19.27
2022-10-25T00:26:24.326Z,16.73
2022-10-25T00:28:55.461Z,20.90
2022-10-25T00:31:24.465Z,19.38
2022-10-25T00:33:52.554Z,22.67
2022-10-25T00:36:23.684Z,17.98
2022-10-25T00:38:53.143Z,20.70
2022-10-25T00:41:25.839Z,26.55
2022-10-25T00:43:56.564Z,20.55
2022-10-25T00:46:31.676Z,24.90
2022-10-25T00:49:13.189Z,23.70
2022-10-25T00:52:09.785Z,24.80
2022-10-25T00:54:45.284Z,21.73
2022-10-25T00:57:17.609Z,30.17
2022-10-25T00:59:47.542Z,28.13
2022-10-25T01:02:22.119Z,31.15
2022-10-25T01:04:53.431Z,34.55
2022-10-25T01:07:21.746Z,28.00
2022-10-25T01:09:51.602Z,29.70
2022-10-25T01:12:19.832Z,28.58
2022-10-25T01:14:50.957Z,26.80
2022-10-25T01:17:35.268Z,19.77
2022-10-25T01:20:40.735Z,24.38
2022-10-25T01:23:38.711Z,22.05
2022-10-25T01:26:48.694Z,21.02
2022-10-25T01:29:28.685Z,17.50
2022-10-25T01:32:06.999Z,20.58
2022-10-25T01:34:48.201Z,21.67
2022-10-25T01:37:35.177Z,18.35
2022-10-25T01:40:06.006Z,19.30
2022-10-25T01:42:49.718Z,22.08
2022-10-25T01:45:36.907Z,21.40
2022-10-25T01:48:17.180Z,21.92
2022-10-25T01:50:47.716Z,22.17
2022-10-25T01:53:16.395Z,19.42
2022-10-25T01:55:54.420Z,27.85
2022-10-25T01:58:37.016Z,21.83
2022-10-25T02:01:23.832Z,20.75
2022-10-25T02:04:08.319Z,20.13
2022-10-25T02:06:45.694Z,21.30
2022-10-25T02:09:41.784Z,20.35
2022-10-25T02:12:19.452Z,15.90
2022-10-25T02:15:09.965Z,17.60
2022-10-25T02:17:49.054Z,24.15
2022-10-25T02:20:20.696Z,20.33
2022-10-25T02:22:50.325Z,25.20
2022-10-25T02:25:19.047Z,16.88
2022-10-25T02:27:48.669Z,17.10
2022-10-25T02:30:17.565Z,18.75
2022-10-25T02:32:46.036Z,19.95
2022-10-25T02:35:19.067Z,17.73
2022-10-25T02:37:48.210Z,16.15
2022-10-25T02:40:17.129Z,16.75
2022-10-25T02:42:45.038Z,19.58
2022-10-25T02:45:14.650Z,16.33
2022-10-25T02:47:42.965Z,19.42
2022-10-25T02:50:11.579Z,18.30
2022-10-25T02:52:39.443Z,19.38
2022-10-25T02:55:08.355Z,25.13
2022-10-25T02:57:38.392Z,21.38
2022-10-25T03:00:08.782Z,25.60
2022-10-25T03:02:37.644Z,20.80
2022-10-25T03:05:06.292Z,19.50
2022-10-25T03:07:34.606Z,20.30
2022-10-25T03:10:03.309Z,21.38
2022-10-25T03:12:31.358Z,22.23
2022-10-25T03:14:59.900Z,22.63
2022-10-25T03:17:27.875Z,24.10
2022-10-25T03:19:56.300Z,23.67
2022-10-25T03:22:24.525Z,23.33
2022-10-25T03:24:52.542Z,22.70
2022-10-25T03:27:21.054Z,21.08
2022-10-25T03:29:48.905Z,18.38
2022-10-25T03:32:17.335Z,16.77
2022-10-25T03:34:45.229Z,21.23
2022-10-25T03:37:13.745Z,23.80
2022-10-25T03:39:42.250Z,21.42
2022-10-25T03:42:10.155Z,25.88
2022-10-25T03:44:38.994Z,24.00
2022-10-25T03:47:07.438Z,19.48
2022-10-25T03:49:35.411Z,24.35
2022-10-25T03:52:06.278Z,22.92
2022-10-25T03:54:34.709Z,26.02
2022-10-25T03:57:02.832Z,26.15
2022-10-25T03:59:31.475Z,21.60
2022-10-25T04:02:00.442Z,20.40
2022-10-25T04:04:28.969Z,19.67
2022-10-25T04:06:57.496Z,18.10
2022-10-25T04:09:26.013Z,19.58
2022-10-25T04:11:53.929Z,26.70
2022-10-25T04:14:22.639Z,25.98
2022-10-25T04:16:50.589Z,26.50
2022-10-25T04:19:18.706Z,18.23
2022-10-25T04:21:47.759Z,21.38
2022-10-25T04:24:16.556Z,21.48
2022-10-25T04:26:44.929Z,17.20
2022-10-25T04:29:13.325Z,17.80
2022-10-25T04:31:43.074Z,17.90
2022-10-25T04:34:11.414Z,22.50
2022-10-25T04:36:40.008Z,11.60
2022-10-25T04:39:07.981Z,16.65
2022-10-25T04:41:36.445Z,16.92
2022-10-25T04:44:04.966Z,19.50
2022-10-25T04:46:32.973Z,17.88
2022-10-25T04:49:01.495Z,31.05
2022-10-25T04:51:30.021Z,25.85
2022-10-25T04:53:58.503Z,22.77
2022-10-25T04:56:28.785Z,21.08
2022-10-25T04:58:58.814Z,18.48
2022-10-25T05:01:27.483Z,18.65
2022-10-25T05:03:55.912Z,19.95
2022-10-25T05:06:27.663Z,20.17
2022-10-25T05:08:55.791Z,22.33
2022-10-25T05:11:25.568Z,23.67
2022-10-25T05:13:54.621Z,27.30
2022-10-25T05:16:25.075Z,23.85
2022-10-25T05:18:55.634Z,29.52
2022-10-25T05:21:30.824Z,25.90
2022-10-25T05:24:02.002Z,27.95
2022-10-25T05:26:31.973Z,22.38
2022-10-25T05:29:01.911Z,26.38
2022-10-25T05:31:31.637Z,17.77
2022-10-25T05:34:01.817Z,27.27
2022-10-25T05:36:29.860Z,17.95
2022-10-25T05:38:59.457Z,21.63
2022-10-25T05:41:30.653Z,19.70
2022-10-25T05:44:01.410Z,18.60
2022-10-25T05:46:29.348Z,24.17
2022-10-25T05:48:59.434Z,21.35
2022-10-25T05:51:35.861Z,19.13
2022-10-25T05:54:15.187Z,24.35
2022-10-25T05:56:44.491Z,15.75
2022-10-25T05:59:14.590Z,22.05
2022-10-25T06:01:46.970Z,26.17
2022-10-25T06:04:16.807Z,19.13
2022-10-25T06:06:47.509Z,17.98
2022-10-25T06:09:16.374Z,14.35
2022-10-25T06:11:44.939Z,13.40
2022-10-25T06:14:13.149Z,13.95
2022-10-25T06:16:41.045Z,16.05
2022-10-25T06:19:10.038Z,14.20
2022-10-25T06:21:38.002Z,17.88
2022-10-25T06:24:07.003Z,17.42
2022-10-25T06:26:35.420Z,17.42
2022-10-25T06:29:05.252Z,12.10
2022-10-25T06:31:33.680Z,11.18
2022-10-25T06:34:02.729Z,13.75
2022-10-25T06:36:31.530Z,15.32
2022-10-25T06:39:05.851Z,11.68
2022-10-25T06:41:37.313Z,14.40
2022-10-25T06:44:07.604Z,14.30
2022-10-25T06:47:04.455Z,18.55
2022-10-25T06:49:27.236Z,14.23
2022-10-25T06:51:55.326Z,12.63
2022-10-25T06:54:25.836Z,18.80
2022-10-25T06:56:54.826Z,15.15
2022-10-25T06:59:23.719Z,18.92
2022-10-25T07:01:52.744Z,15.35
2022-10-25T07:04:21.059Z,14.55
2022-10-25T07:06:52.752Z,17.23
2022-10-25T07:09:24.026Z,14.77
2022-10-25T07:11:52.225Z,13.38
2022-10-25T07:14:21.700Z,18.40
2022-10-25T07:16:49.791Z,13.85
2022-10-25T07:19:18.170Z,15.48
2022-10-25T07:21:46.405Z,11.93
2022-10-25T07:24:14.799Z,12.18
2022-10-25T07:26:43.411Z,11.40
2022-10-25T07:29:11.418Z,20.70
2022-10-25T07:31:44.498Z,14.95
2022-10-25T07:34:14.568Z,15.88
2022-10-25T07:36:42.539Z,15.10
2022-10-25T07:39:11.036Z,16.63
2022-10-25T07:41:39.096Z,12.82
2022-10-25T07:44:09.531Z,16.42
2022-10-25T07:46:40.697Z,15.38
2022-10-25T07:49:09.070Z,20.50
2022-10-25T07:51:37.689Z,15.27
2022-10-25T07:54:06.408Z,15.98
2022-10-25T07:56:34.408Z,14.20
2022-10-25T07:59:02.312Z,16.63
2022-10-25T08:01:30.650Z,14.45
2022-10-25T08:03:58.697Z,18.63
2022-10-25T08:06:27.749Z,18.33
2022-10-25T08:08:55.810Z,13.57
2022-10-25T08:11:23.823Z,12.00
2022-10-25T08:13:51.831Z,13.55
2022-10-25T08:16:20.393Z,17.85
2022-10-25T08:18:48.930Z,16.23
2022-10-25T08:21:42.515Z,11.93
2022-10-25T08:24:10.694Z,14.57
2022-10-25T08:26:38.542Z,13.68
2022-10-25T08:29:06.469Z,15.40
2022-10-25T08:31:34.499Z,15.85
2022-10-25T08:34:02.414Z,12.07
2022-10-25T08:36:30.368Z,15.68
2022-10-25T08:38:58.260Z,13.05
2022-10-25T08:41:38.938Z,12.00
2022-10-25T08:44:24.138Z,14.30
2022-10-25T08:47:12.889Z,12.77
2022-10-25T08:50:06.192Z,12.82
2022-10-25T08:53:00.780Z,13.07
2022-10-25T08:55:44.589Z,14.27
2022-10-25T08:58:26.835Z,15.45
2022-10-25T09:00:56.355Z,14.70
2022-10-25T09:03:26.334Z,11.77
2022-10-25T09:06:06.245Z,14.85
2022-10-25T09:08:53.399Z,16.30
2022-10-25T09:11:27.087Z,15.10
2022-10-25T09:14:08.375Z,13.68
2022-10-25T09:16:47.035Z,13.38
2022-10-25T09:19:23.730Z,15.60
2022-10-25T09:22:00.558Z,10.25
2022-10-25T09:24:43.755Z,11.93
2022-10-25T09:27:46.649Z,16.27
2022-10-25T09:30:14.935Z,19.27
2022-10-25T09:32:52.909Z,15.10
2022-10-25T09:35:53.645Z,12.02
2022-10-25T09:38:27.883Z,14.23
2022-10-25T09:41:02.649Z,18.38
2022-10-25T09:44:00.606Z,11.27
2022-10-25T09:46:34.976Z,17.77
2022-10-25T09:49:08.645Z,13.90
2022-10-25T09:51:52.013Z,14.57
2022-10-25T09:54:28.878Z,16.35
2022-10-25T09:56:56.914Z,16.98
2022-10-25T09:59:27.853Z,14.07
2022-10-25T10:01:56.112Z,14.02
2022-10-25T10:04:39.540Z,14.18
2022-10-25T10:07:16.239Z,13.90
2022-10-25T10:09:46.199Z,16.83
2022-10-25T10:12:24.323Z,12.20
2022-10-25T10:15:00.688Z,13.27
2022-10-25T10:17:30.798Z,14.75
2022-10-25T10:20:15.338Z,14.10
2022-10-25T10:22:53.549Z,16.38
2022-10-25T10:25:27.309Z,14.85
2022-10-25T10:27:58.191Z,14.73
2022-10-25T10:30:31.374Z,12.45
2022-10-25T10:33:03.344Z,14.23
2022-10-25T10:35:37.069Z,18.05
2022-10-25T10:38:26.665Z,15.95
2022-10-25T10:41:30.835Z,15.48
2022-10-25T10:44:13.451Z,14.07
2022-10-25T10:46:49.256Z,15.35
2022-10-25T10:49:17.645Z,17.38
2022-10-25T10:51:46.850Z,15.02
2022-10-25T10:54:38.316Z,14.25
2022-10-25T10:57:21.106Z,17.67
2022-10-25T10:59:57.117Z,14.45
2022-10-25T11:02:40.071Z,14.10
2022-10-25T11:05:26.605Z,18.95
2022-10-25T11:08:13.625Z,16.00
2022-10-25T11:10:41.503Z,18.50
2022-10-25T11:13:21.227Z,17.27
2022-10-25T11:16:07.476Z,12.38
2022-10-25T11:18:55.642Z,17.88
2022-10-25T11:21:42.650Z,12.82
2022-10-25T11:24:35.004Z,12.38
2022-10-25T11:27:15.998Z,16.40
2022-10-25T11:29:58.019Z,14.52
2022-10-25T11:32:46.407Z,17.60
2022-10-25T11:35:26.288Z,20.92
2022-10-25T11:38:07.552Z,18.02
2022-10-25T11:40:48.136Z,18.73
2022-10-25T11:43:16.316Z,16.30
2022-10-25T11:45:47.048Z,16.92
2022-10-25T11:48:20.361Z,14.48
2022-10-25T11:51:10.369Z,14.93
2022-10-25T11:53:50.317Z,15.77
2022-10-25T11:56:44.929Z,14.27
2022-10-25T11:59:49.381Z,16.30
2022-10-25T12:02:23.414Z,19.00
2022-10-25T12:05:02.483Z,14.65
2022-10-25T12:07:34.052Z,14.82
2022-10-25T12:10:04.819Z,16.75
2022-10-25T12:12:53.807Z,16.95
2022-10-25T12:15:41.447Z,14.30
2022-10-25T12:18:25.281Z,16.65
2022-10-25T12:20:56.167Z,15.50
2022-10-25T12:23:26.622Z,13.05
2022-10-25T12:26:02.290Z,14.07
2022-10-25T12:28:44.146Z,14.15
2022-10-25T12:31:20.717Z,14.48
2022-10-25T12:34:11.655Z,17.10
2022-10-25T12:37:11.999Z,15.57
2022-10-25T12:39:46.760Z,14.77
2022-10-25T12:42:22.877Z,16.05
2022-10-25T12:45:24.890Z,19.17
2022-10-25T12:48:17.777Z,15.27
2022-10-25T12:51:18.840Z,18.00
2022-10-25T12:54:23.106Z,16.17
2022-10-25T12:56:51.301Z,24.48
2022-10-25T12:59:43.976Z,14.30
2022-10-25T13:02:20.341Z,17.77
2022-10-25T13:05:03.058Z,15.85
2022-10-25T13:07:34.008Z,16.55
2022-10-25T13:10:18.194Z,18.77
2022-10-25T13:13:05.121Z,18.35
2022-10-25T13:15:53.118Z,17.30
2022-10-25T13:18:47.967Z,15.23
2022-10-25T13:21:53.408Z,18.05
2022-10-25T13:24:43.682Z,16.00
2022-10-25T13:27:18.973Z,18.38
2022-10-25T13:30:01.725Z,16.75
2022-10-25T13:32:39.721Z,17.98
2022-10-25T13:35:19.959Z,22.60
2022-10-25T13:37:54.511Z,22.92
2022-10-25T13:40:28.088Z,19.25
2022-10-25T13:43:00.451Z,16.83
2022-10-25T13:45:46.488Z,15.38
2022-10-25T13:48:14.375Z,16.25
2022-10-25T13:50:52.487Z,13.95
2022-10-25T13:53:24.714Z,18.95
2022-10-25T13:56:04.648Z,19.63
2022-10-25T13:58:33.916Z,18.23
2022-10-25T14:01:16.912Z,16.75
2022-10-25T14:04:03.728Z,15.80
2022-10-25T14:06:49.750Z,23.10
2022-10-25T14:09:26.667Z,17.70
2022-10-25T14:12:07.607Z,16.02
2022-10-25T14:15:02.513Z,17.92
2022-10-25T14:17:43.241Z,21.58
2022-10-25T14:20:24.118Z,15.88
2022-10-25T14:23:02.150Z,16.55
2022-10-25T14:25:49.048Z,18.17
2022-10-25T14:28:23.576Z,17.35
2022-10-25T14:30:57.283Z,21.17
2022-10-25T14:33:29.166Z,15.63
2022-10-25T14:36:06.460Z,18.87
2022-10-25T14:38:59.168Z,18.30
2022-10-25T14:41:36.623Z,18.38
2022-10-25T14:44:28.151Z,16.48
2022-10-25T14:46:57.687Z,16.00
2022-10-25T14:49:26.942Z,17.73
2022-10-25T14:52:00.517Z,16.88
2022-10-25T14:54:34.597Z,19.58
2022-10-25T14:57:09.039Z,20.45
2022-10-25T14:59:43.194Z,19.17
2022-10-25T15:02:26.063Z,18.90
2022-10-25T15:05:00.247Z,17.45
2022-10-25T15:07:40.344Z,16.73
2022-10-25T15:10:34.680Z,21.05
2022-10-25T15:13:22.208Z,22.10
2022-10-25T15:15:51.897Z,18.77
2022-10-25T15:18:34.267Z,22.20
2022-10-25T15:21:05.527Z,19.33
2022-10-25T15:23:34.857Z,19.40
2022-10-25T15:26:27.993Z,19.60
2022-10-25T15:28:59.048Z,25.20
2022-10-25T15:31:29.624Z,23.48
2022-10-25T15:34:02.765Z,20.17
2022-10-25T15:36:33.440Z,17.92
2022-10-25T15:39:10.421Z,22.70
2022-10-25T15:41:40.819Z,22.48
2022-10-25T15:44:08.966Z,19.77
2022-10-25T15:46:38.307Z,18.83
2022-10-25T15:49:08.693Z,20.10
2022-10-25T15:51:40.554Z,23.67
2022-10-25T15:54:35.020Z,20.77
2022-10-25T15:57:03.749Z,34.58
2022-10-25T15:59:31.710Z,30.52
2022-10-25T16:01:59.806Z,24.33
2022-10-25T16:04:27.981Z,25.75
2022-10-25T16:06:56.539Z,26.17
2022-10-25T16:09:24.967Z,25.38
2022-10-25T16:11:54.966Z,22.42
2022-10-25T16:14:27.142Z,25.48
2022-10-25T16:16:58.334Z,23.23
2022-10-25T16:19:28.460Z,24.15
2022-10-25T16:21:56.433Z,23.50
2022-10-25T16:24:24.630Z,24.77
2022-10-25T16:26:53.170Z,28.25
2022-10-25T16:29:24.757Z,42.58
2022-10-25T16:31:54.200Z,35.45
2022-10-25T16:34:22.608Z,38.03
2022-10-25T16:36:52.542Z,45.72
2022-10-25T16:39:45.628Z,35.50
2022-10-25T16:42:34.459Z,35.53
2022-10-25T16:45:12.108Z,43.85
2022-10-25T16:47:41.279Z,32.50
2022-10-25T16:50:09.885Z,45.10
2022-10-25T16:52:37.935Z,37.95
2022-10-25T16:55:08.943Z,32.03
2022-10-25T16:57:36.989Z,41.03
2022-10-25T17:00:05.511Z,39.28
2022-10-25T17:02:33.628Z,39.67
2022-10-25T17:05:02.110Z,34.97
2022-10-25T17:07:31.105Z,43.80
2022-10-25T17:09:59.816Z,37.08
2022-10-25T17:12:27.831Z,45.10
2022-10-25T17:14:55.800Z,45.88
2022-10-25T17:17:24.492Z,39.47
2022-10-25T17:19:53.209Z,34.58
2022-10-25T17:22:22.577Z,28.92
2022-10-25T17:24:50.670Z,34.03
2022-10-25T17:27:19.231Z,38.10
2022-10-25T17:29:47.216Z,43.90
2022-10-25T17:32:15.187Z,39.25
2022-10-25T17:34:43.203Z,36.13
2022-10-25T17:37:11.145Z,36.40
2022-10-25T17:39:39.072Z,32.42
2022-10-25T17:42:07.453Z,33.53
2022-10-25T17:44:35.595Z,40.95
2022-10-25T17:47:06.075Z,38.67
2022-10-25T17:49:34.383Z,37.72
2022-10-25T17:52:02.847Z,37.47
2022-10-25T17:54:30.877Z,35.35
2022-10-25T17:57:01.254Z,33.30
2022-10-25T17:59:29.308Z,33.83
2022-10-25T18:01:57.929Z,34.25
2022-10-25T18:04:26.327Z,29.52
2022-10-25T18:06:54.439Z,31.75
2022-10-25T18:09:22.439Z,35.45
2022-10-25T18:11:50.508Z,27.52
2022-10-25T18:14:18.907Z,32.35
2022-10-25T18:16:47.315Z,33.75
2022-10-25T18:19:15.941Z,36.20
2022-10-25T18:21:43.836Z,35.92
2022-10-25T18:24:13.205Z,34.15
2022-10-25T18:26:41.270Z,29.77
2022-10-25T18:29:13.351Z,30.55
2022-10-25T18:31:41.587Z,37.95
2022-10-25T18:34:10.025Z,39.05
2022-10-25T18:36:38.469Z,40.13
2022-10-25T18:39:06.671Z,42.17
2022-10-25T18:41:34.999Z,45.13
2022-10-25T18:44:03.292Z,34.38
2022-10-25T18:46:32.745Z,35.40
2022-10-25T18:49:00.772Z,33.40
2022-10-25T18:51:30.295Z,32.08
2022-10-25T18:54:01.045Z,32.00
2022-10-25T18:56:30.096Z,36.88
2022-10-25T18:58:59.277Z,40.90
2022-10-25T19:01:32.665Z,36.38
2022-10-25T19:04:03.953Z,43.63
2022-10-25T19:06:33.516Z,31.17
2022-10-25T19:09:03.386Z,34.05
2022-10-25T19:11:33.466Z,31.50
2022-10-25T19:14:03.117Z,36.22
2022-10-25T19:16:31.308Z,32.08
2022-10-25T19:19:07.306Z,36.85
2022-10-25T19:21:37.046Z,31.55
2022-10-25T19:24:05.968Z,36.38
2022-10-25T19:26:34.575Z,36.63
2022-10-25T19:29:02.658Z,38.70
2022-10-25T19:31:31.248Z,33.17
2022-10-25T19:34:02.989Z,34.17
2022-10-25T19:36:31.219Z,32.88
2022-10-25T19:39:01.487Z,35.20
2022-10-25T19:41:30.822Z,36.38
2022-10-25T19:43:59.359Z,35.60
2022-10-25T19:46:31.044Z,34.13
2022-10-25T19:49:00.583Z,34.33
2022-10-25T19:51:28.993Z,37.83
2022-10-25T19:53:56.989Z,33.78
2022-10-25T19:56:25.114Z,34.15
2022-10-25T19:58:53.110Z,29.58
2022-10-25T20:01:24.346Z,31.00
2022-10-25T20:03:57.700Z,33.28
2022-10-25T20:06:30.901Z,32.65
2022-10-25T20:09:01.296Z,33.15
2022-10-25T20:11:29.733Z,45.28
2022-10-25T20:14:01.123Z,33.25
2022-10-25T20:16:30.854Z,41.50
2022-10-25T20:19:02.671Z,33.50
2022-10-25T20:21:34.349Z,38.35
2022-10-25T20:24:05.909Z,33.60
2022-10-25T20:26:37.266Z,33.45
2022-10-25T20:29:20.189Z,33.65
2022-10-25T20:31:50.940Z,34.97
2022-10-25T20:34:20.058Z,40.63
2022-10-25T20:36:49.074Z,37.63
2022-10-25T20:39:17.494Z,38.90
2022-10-25T20:41:46.127Z,41.58
2022-10-25T20:44:14.844Z,36.22
2022-10-25T20:46:43.885Z,34.40
2022-10-25T20:49:12.198Z,36.30
2022-10-25T20:51:40.555Z,36.72
2022-10-25T20:54:10.058Z,38.63
2022-10-25T20:56:39.678Z,34.42
2022-10-25T20:59:08.551Z,26.42
2022-10-25T21:01:37.701Z,30.33
2022-10-25T21:04:06.059Z,37.17
2022-10-25T21:06:34.507Z,38.00
2022-10-25T21:09:02.557Z,39.03
2022-10-25T21:11:30.514Z,37.78
2022-10-25T21:13:59.359Z,38.20
2022-10-25T21:16:28.327Z,38.08
2022-10-25T21:18:56.649Z,37.75
2022-10-25T21:21:24.713Z,42.63
2022-10-25T21:23:56.323Z,36.72
2022-10-25T21:26:24.965Z,41.30
2022-10-25T21:28:52.895Z,34.33
2022-10-25T21:31:21.155Z,31.25
2022-10-25T21:33:50.302Z,34.03
2022-10-25T21:36:21.199Z,36.47
2022-10-25T21:38:50.041Z,40.20
2022-10-25T21:41:23.413Z,35.90
2022-10-25T21:43:52.223Z,32.40
2022-10-25T21:46:22.087Z,34.22
2022-10-25T21:48:53.151Z,31.92
2022-10-25T21:51:24.371Z,36.90
2022-10-25T21:53:54.947Z,31.88
2022-10-25T21:56:30.715Z,32.53
2022-10-25T21:59:00.784Z,36.95
2022-10-25T22:01:30.381Z,36.58
2022-10-25T22:03:59.104Z,39.33
2022-10-25T22:06:28.346Z,34.78
2022-10-25T22:08:56.941Z,34.25
2022-10-25T22:11:35.142Z,28.40
2022-10-25T22:14:05.955Z,30.00
2022-10-25T22:16:34.859Z,33.33
2022-10-25T22:19:05.429Z,28.05
2022-10-25T22:21:37.129Z,37.35
2022-10-25T22:24:06.733Z,34.58
2022-10-25T22:26:35.871Z,31.92
2022-10-25T22:29:04.784Z,37.95
2022-10-25T22:31:33.464Z,36.80
2022-10-25T22:34:05.424Z,31.75
2022-10-25T22:36:36.022Z,32.72
2022-10-25T22:39:05.299Z,33.60
2022-10-25T22:41:34.335Z,31.27
2022-10-25T22:44:03.058Z,39.15
2022-10-25T22:46:36.191Z,32.65
2022-10-25T22:49:08.993Z,29.05
2022-10-25T22:51:37.934Z,34.97
2022-10-25T22:54:07.196Z,34.58
2022-10-25T22:56:35.362Z,31.75
2022-10-25T22:59:05.653Z,31.55
2022-10-25T23:01:36.385Z,36.38
2022-10-25T23:04:07.035Z,33.95
2022-10-25T23:06:38.171Z,38.22
2022-10-25T23:09:09.282Z,30.65
2022-10-25T23:11:38.995Z,38.47
2022-10-25T23:14:13.382Z,37.85
2022-10-25T23:16:45.653Z,32.67
2022-10-25T23:19:14.410Z,35.65
2022-10-25T23:21:42.799Z,35.35
2022-10-25T23:24:11.688Z,38.20
2022-10-25T23:26:39.998Z,43.25
2022-10-25T23:29:11.351Z,36.20
2022-10-25T23:31:39.554Z,40.50
2022-10-25T23:34:07.756Z,46.08
2022-10-25T23:36:39.229Z,38.50
2022-10-25T23:39:08.066Z,45.80
2022-10-25T23:41:36.082Z,32.10
2022-10-25T23:44:04.193Z,45.15
2022-10-25T23:46:32.040Z,40.53
2022-10-25T23:49:00.136Z,31.73
2022-10-25T23:51:28.054Z,34.63
2022-10-25T23:53:56.173Z,40.20
2022-10-25T23:56:24.506Z,36.00
2022-10-25T23:58:53.840Z,39.78
